Time;durP1;ratioP1;P1;durP2;ratioP2;P2;SDS_P1;SDS_P2;PMS_P1;PMS_P2;Temp;Humidity;BMP_temperature;BMP_pressure;BME280_temperature;BME280_humidity;BME280_pressure;Samples;Min_cycle;Max_cycle;Signal;HPM_P1;HPM_P2
2022/07/14 00:01:42;;;;;;;14.00;3.42;;;17.10;99.90;;;;;;5024040;28;20065;-77
2022/07/14 00:04:08;;;;;;;10.57;2.67;;;17.10;99.90;;;;;;5002044;28;20025;-77
2022/07/14 00:06:34;;;;;;;13.55;2.95;;;17.20;99.90;;;;;;4999541;28;20128;-77
2022/07/14 00:09:00;;;;;;;11.13;2.30;;;17.20;99.90;;;;;;4995281;28;20037;-78
2022/07/14 00:11:26;;;;;;;8.98;1.70;;;17.10;99.90;;;;;;5002239;28;20109;-76
2022/07/14 00:13:53;;;;;;;10.98;2.45;;;17.10;99.90;;;;;;5004907;28;20054;-79
2022/07/14 00:16:19;;;;;;;14.75;2.92;;;17.10;99.90;;;;;;4999455;28;20080;-77
2022/07/14 00:18:44;;;;;;;9.52;2.30;;;17.10;99.90;;;;;;4982075;28;20018;-77
2022/07/14 00:21:11;;;;;;;9.25;2.35;;;17.10;99.90;;;;;;5002957;28;20363;-76
2022/07/14 00:23:37;;;;;;;12.07;2.20;;;17.00;99.90;;;;;;5000087;28;20065;-77
2022/07/14 00:26:03;;;;;;;13.27;2.25;;;17.00;99.90;;;;;;5002025;28;20529;-77
2022/07/14 00:28:29;;;;;;;13.68;2.95;;;16.90;99.90;;;;;;5001239;28;20105;-77
2022/07/14 00:30:55;;;;;;;15.65;3.00;;;16.90;99.90;;;;;;4998836;28;20109;-77
2022/07/14 00:33:21;;;;;;;7.03;1.85;;;16.90;99.90;;;;;;5000235;28;20037;-77
2022/07/14 00:35:47;;;;;;;8.23;1.88;;;16.90;99.90;;;;;;4998815;28;20065;-78
2022/07/14 00:38:13;;;;;;;10.15;2.42;;;16.80;99.90;;;;;;5001847;28;20030;-77
2022/07/14 00:40:39;;;;;;;12.82;2.90;;;16.80;99.90;;;;;;5000978;28;20273;-77
2022/07/14 00:43:04;;;;;;;9.23;2.45;;;16.80;99.90;;;;;;4999851;28;20033;-78
2022/07/14 00:45:30;;;;;;;7.38;2.20;;;16.80;99.90;;;;;;5001043;28;20026;-77
2022/07/14 00:47:57;;;;;;;15.00;2.65;;;16.80;99.90;;;;;;5000118;28;20022;-77
2022/07/14 00:50:23;;;;;;;12.95;2.55;;;16.70;99.90;;;;;;4982219;28;20537;-77
2022/07/14 00:52:50;;;;;;;11.15;2.10;;;16.80;99.90;;;;;;5000793;28;20035;-78
2022/07/14 00:55:17;;;;;;;10.63;2.25;;;16.80;99.90;;;;;;4999374;28;20026;-77
2022/07/14 00:57:43;;;;;;;6.53;1.88;;;16.70;99.90;;;;;;5002164;28;20030;-77
2022/07/14 01:00:14;;;;;;;10.30;2.25;;;16.70;99.90;;;;;;4998729;28;20427;-76
2022/07/14 01:02:45;;;;;;;15.88;2.97;;;16.60;99.90;;;;;;5000067;28;20034;-76
2022/07/14 01:05:11;;;;;;;11.13;2.42;;;16.60;99.90;;;;;;4999840;28;20061;-77
2022/07/14 01:07:37;;;;;;;11.77;2.85;;;16.60;99.90;;;;;;5002555;28;20030;-76
2022/07/14 01:10:04;;;;;;;10.20;2.83;;;16.60;99.90;;;;;;5001464;28;20505;-76
2022/07/14 01:12:31;;;;;;;10.82;1.88;;;16.60;99.90;;;;;;5000831;28;20061;-76
2022/07/14 01:14:57;;;;;;;15.18;3.20;;;16.60;99.90;;;;;;4984469;28;20033;-76
2022/07/14 01:17:23;;;;;;;9.13;1.85;;;16.60;99.90;;;;;;4988848;28;20123;-77
2022/07/14 01:19:49;;;;;;;8.93;1.98;;;16.60;99.90;;;;;;5008428;28;20029;-77
2022/07/14 01:22:14;;;;;;;15.38;3.00;;;16.60;99.90;;;;;;5004045;28;20026;-76
2022/07/14 01:24:40;;;;;;;12.93;2.90;;;16.50;99.90;;;;;;4996794;28;20038;-78
2022/07/14 01:27:06;;;;;;;7.05;2.10;;;16.50;99.90;;;;;;5001447;28;20026;-77
2022/07/14 01:29:31;;;;;;;9.98;1.73;;;16.50;99.90;;;;;;5001908;28;20096;-78
2022/07/14 01:31:58;;;;;;;10.23;2.47;;;16.50;99.90;;;;;;4998148;28;20022;-76
2022/07/14 01:34:23;;;;;;;11.55;2.22;;;16.50;99.90;;;;;;4977606;28;20034;-77
2022/07/14 01:36:49;;;;;;;12.55;2.30;;;16.40;99.90;;;;;;4997202;28;20084;-75
2022/07/14 01:39:15;;;;;;;13.93;2.72;;;16.40;99.90;;;;;;5000532;28;20381;-76
2022/07/14 01:41:41;;;;;;;12.43;2.42;;;16.40;99.90;;;;;;4998649;28;20022;-76
2022/07/14 01:44:07;;;;;;;13.25;2.17;;;16.40;99.90;;;;;;5000275;28;20065;-76
2022/07/14 01:46:33;;;;;;;9.80;2.55;;;16.40;99.90;;;;;;5000133;28;20035;-77
2022/07/14 01:48:58;;;;;;;18.52;2.35;;;16.30;99.90;;;;;;4999677;28;20026;-76
2022/07/14 01:51:24;;;;;;;12.45;2.20;;;16.30;99.90;;;;;;4996278;28;20585;-76
2022/07/14 01:53:50;;;;;;;11.68;2.30;;;16.30;99.90;;;;;;4981689;28;20029;-76
2022/07/14 01:56:16;;;;;;;9.27;2.38;;;16.30;99.90;;;;;;5000354;28;20041;-78
2022/07/14 01:58:42;;;;;;;16.70;2.85;;;16.20;99.90;;;;;;4996069;28;20391;-76
2022/07/14 02:03:57;;;;;;;12.48;2.55;;;16.20;99.90;;;;;;5000040;28;20030;-76
2022/07/14 02:06:23;;;;;;;16.63;2.67;;;16.10;99.90;;;;;;4999200;28;20235;-76
2022/07/14 02:08:50;;;;;;;12.75;2.28;;;16.10;99.90;;;;;;4999391;28;20029;-77
2022/07/14 02:14:03;;;;;;;12.38;2.53;;;16.10;99.90;;;;;;5000409;28;20045;-76
2022/07/14 02:16:29;;;;;;;9.10;2.22;;;16.00;99.90;;;;;;5001184;28;20086;-76
2022/07/14 02:18:55;;;;;;;10.98;2.83;;;16.10;99.90;;;;;;4997068;28;20027;-77
2022/07/14 02:21:21;;;;;;;11.15;2.75;;;16.00;99.90;;;;;;4998154;28;20028;-77
2022/07/14 02:23:46;;;;;;;10.07;2.53;;;16.00;99.90;;;;;;4999995;28;20030;-77
2022/07/14 02:26:12;;;;;;;12.43;2.53;;;16.00;99.90;;;;;;4997390;28;20101;-76
2022/07/14 02:28:40;;;;;;;13.02;3.15;;;16.00;99.90;;;;;;4998976;28;20032;-76
2022/07/14 02:31:06;;;;;;;10.50;2.33;;;16.00;99.90;;;;;;4994623;28;20031;-76
2022/07/14 02:33:32;;;;;;;18.15;2.83;;;16.00;99.90;;;;;;4994732;28;20037;-76
2022/07/14 02:35:58;;;;;;;9.82;2.20;;;15.90;99.90;;;;;;4995824;28;20048;-76
2022/07/14 02:38:23;;;;;;;10.68;2.42;;;15.90;99.90;;;;;;4999430;28;20029;-76
2022/07/14 02:40:49;;;;;;;12.10;3.22;;;15.90;99.90;;;;;;4980600;28;20069;-76
2022/07/14 02:43:15;;;;;;;8.38;1.83;;;15.90;99.90;;;;;;4997954;28;20038;-77
2022/07/14 02:45:40;;;;;;;11.60;2.25;;;15.80;99.90;;;;;;4997926;28;20034;-77
2022/07/14 02:48:07;;;;;;;7.47;1.92;;;15.90;99.90;;;;;;4999999;28;20022;-76
2022/07/14 02:50:32;;;;;;;8.93;2.03;;;15.80;99.90;;;;;;4996698;28;20031;-76
2022/07/14 02:52:59;;;;;;;11.38;2.13;;;15.80;99.90;;;;;;4996932;28;20384;-76
2022/07/14 02:55:24;;;;;;;8.10;1.80;;;15.80;99.90;;;;;;4999904;28;20105;-76
2022/07/14 02:57:50;;;;;;;5.90;2.00;;;15.80;99.90;;;;;;4998445;28;20104;-77
2022/07/14 03:00:17;;;;;;;9.43;2.05;;;15.80;99.90;;;;;;4999690;28;20113;-77
2022/07/14 03:02:43;;;;;;;9.05;2.00;;;15.70;99.90;;;;;;4997214;28;20073;-77
2022/07/14 03:05:09;;;;;;;9.25;1.95;;;15.70;99.90;;;;;;5001746;28;20026;-76
2022/07/14 03:07:34;;;;;;;9.43;2.20;;;15.70;99.90;;;;;;4997174;28;20490;-76
2022/07/14 03:10:00;;;;;;;10.50;2.17;;;15.70;99.90;;;;;;4996162;28;20482;-76
2022/07/14 03:12:26;;;;;;;7.50;2.75;;;15.60;99.90;;;;;;4981226;28;20034;-76
2022/07/14 03:14:52;;;;;;;9.73;2.50;;;15.60;99.90;;;;;;4996347;28;20416;-76
2022/07/14 03:17:18;;;;;;;10.82;2.10;;;15.70;99.90;;;;;;4999357;28;20068;-76
2022/07/14 03:19:44;;;;;;;6.60;2.05;;;15.60;99.90;;;;;;4997390;28;20031;-76
2022/07/14 03:22:10;;;;;;;12.30;2.45;;;15.60;99.90;;;;;;4998656;28;20356;-77
2022/07/14 03:24:35;;;;;;;7.28;2.50;;;15.60;99.90;;;;;;5000887;28;20034;-75
2022/07/14 03:27:01;;;;;;;13.60;2.42;;;15.60;99.90;;;;;;4999373;28;20372;-79
2022/07/14 03:29:27;;;;;;;14.60;2.38;;;15.60;99.90;;;;;;5004590;28;20089;-76
2022/07/14 03:31:54;;;;;;;8.45;1.50;;;15.50;99.90;;;;;;5007576;28;20045;-77
2022/07/14 03:34:20;;;;;;;9.85;2.20;;;15.50;99.90;;;;;;5004059;28;20073;-75
2022/07/14 03:36:46;;;;;;;11.70;2.03;;;15.50;99.90;;;;;;4987750;28;20045;-76
2022/07/14 03:39:11;;;;;;;13.20;2.30;;;15.50;99.90;;;;;;5004532;28;20038;-76
2022/07/14 03:41:37;;;;;;;7.45;2.75;;;15.50;99.90;;;;;;5011568;28;20545;-75
2022/07/14 03:44:03;;;;;;;12.77;2.42;;;15.50;99.90;;;;;;4990387;28;20030;-76
2022/07/14 03:46:28;;;;;;;8.63;2.05;;;15.60;99.90;;;;;;5008935;28;20057;-77
2022/07/14 03:48:54;;;;;;;10.38;2.17;;;15.60;99.90;;;;;;4998962;28;20058;-75
2022/07/14 03:51:20;;;;;;;11.30;2.17;;;15.60;99.90;;;;;;5002926;28;20022;-76
2022/07/14 03:53:45;;;;;;;13.23;2.30;;;15.60;99.90;;;;;;5001582;28;20030;-77
2022/07/14 03:56:11;;;;;;;8.50;2.17;;;15.60;99.90;;;;;;5001723;28;20022;-76
2022/07/14 03:58:37;;;;;;;14.82;3.20;;;15.60;99.90;;;;;;4985285;28;20038;-75
2022/07/14 04:01:03;;;;;;;12.07;2.33;;;15.60;99.90;;;;;;5000395;28;20036;-77
2022/07/14 04:03:30;;;;;;;8.10;1.88;;;15.60;99.90;;;;;;5001270;28;20026;-76
2022/07/14 04:05:57;;;;;;;13.23;3.25;;;15.70;99.90;;;;;;4999913;28;20116;-77
2022/07/14 04:08:23;;;;;;;8.15;2.47;;;15.70;99.90;;;;;;5000187;28;20030;-79
2022/07/14 04:10:48;;;;;;;9.35;2.03;;;15.70;99.90;;;;;;5000465;28;20510;-77
2022/07/14 04:13:15;;;;;;;7.88;2.55;;;15.70;99.90;;;;;;5002932;28;20022;-76
2022/07/14 04:15:41;;;;;;;9.63;1.92;;;15.70;99.90;;;;;;5000125;28;20029;-76
2022/07/14 04:18:08;;;;;;;9.52;2.28;;;15.70;99.90;;;;;;4999771;28;20068;-75
2022/07/14 04:20:35;;;;;;;10.02;2.80;;;15.70;99.90;;;;;;5001868;28;20034;-77
2022/07/14 04:23:01;;;;;;;10.45;2.70;;;15.70;99.90;;;;;;5000768;28;20050;-76
2022/07/14 04:25:26;;;;;;;15.18;2.53;;;15.70;99.90;;;;;;4984780;28;20411;-77
2022/07/14 04:27:52;;;;;;;9.52;2.53;;;15.70;99.90;;;;;;4999795;28;20034;-76
2022/07/14 04:30:18;;;;;;;14.63;2.45;;;15.70;99.90;;;;;;5000552;28;20133;-77
2022/07/14 04:32:43;;;;;;;12.45;3.13;;;15.70;99.90;;;;;;5001924;28;20038;-78
2022/07/14 04:35:09;;;;;;;12.52;2.63;;;15.70;99.90;;;;;;5000841;28;20398;-76
2022/07/14 04:37:35;;;;;;;14.65;3.33;;;15.70;99.90;;;;;;5002218;28;20280;-76
2022/07/14 04:40:02;;;;;;;10.38;2.20;;;15.80;99.90;;;;;;5001268;28;20549;-76
2022/07/14 04:42:28;;;;;;;10.73;1.95;;;15.80;99.90;;;;;;5003652;28;20034;-76
2022/07/14 04:44:54;;;;;;;12.93;2.97;;;15.80;99.90;;;;;;4999154;28;20036;-77
2022/07/14 04:47:20;;;;;;;7.03;1.83;;;15.90;99.90;;;;;;5003572;28;20030;-76
2022/07/14 04:52:30;;;;;;;9.75;1.75;;;16.00;99.90;;;;;;5000060;28;20033;-76
2022/07/14 04:54:56;;;;;;;9.32;1.98;;;17.00;99.90;;;;;;4998806;28;20031;-76
2022/07/14 04:57:21;;;;;;;9.45;2.17;;;17.40;99.90;;;;;;4998910;28;20018;-76
2022/07/14 04:59:47;;;;;;;8.45;1.95;;;17.30;99.90;;;;;;5000313;28;20029;-77
2022/07/14 05:02:13;;;;;;;8.27;2.00;;;17.30;99.90;;;;;;4999023;28;20034;-77
2022/07/14 05:04:39;;;;;;;9.70;2.22;;;17.40;99.90;;;;;;4997885;28;20529;-77
2022/07/14 05:07:05;;;;;;;8.43;2.05;;;17.30;99.90;;;;;;5004595;28;20029;-78
2022/07/14 05:09:33;;;;;;;7.38;1.77;;;17.10;99.90;;;;;;4999546;28;20498;-76
2022/07/14 05:12:02;;;;;;;10.18;2.10;;;17.00;99.90;;;;;;4984517;28;20410;-77
2022/07/14 05:14:29;;;;;;;8.23;2.25;;;16.80;99.90;;;;;;5002889;28;20096;-77
2022/07/14 05:16:55;;;;;;;8.95;2.15;;;16.70;99.90;;;;;;5000807;28;20850;-77
2022/07/14 05:19:25;;;;;;;7.13;2.15;;;16.70;99.90;;;;;;5000986;28;20111;-79
2022/07/14 05:21:52;;;;;;;6.53;2.13;;;16.60;99.90;;;;;;4981965;28;20032;-75
2022/07/14 05:24:17;;;;;;;12.80;2.28;;;16.60;99.90;;;;;;5004235;28;20023;-76
2022/07/14 05:26:43;;;;;;;11.02;2.17;;;16.50;99.90;;;;;;5000058;28;20268;-75
2022/07/14 05:29:08;;;;;;;10.85;2.75;;;16.50;99.90;;;;;;5002541;28;20026;-76
2022/07/14 05:31:34;;;;;;;10.18;2.70;;;16.50;99.90;;;;;;4997261;28;20058;-76
2022/07/14 05:34:00;;;;;;;9.45;3.10;;;16.60;99.90;;;;;;5004025;28;20029;-78
2022/07/14 05:36:26;;;;;;;7.82;2.28;;;16.60;99.90;;;;;;5008132;28;20088;-76
2022/07/14 05:38:52;;;;;;;12.25;2.70;;;16.60;99.90;;;;;;5006866;28;20109;-76
2022/07/14 05:41:19;;;;;;;10.77;2.80;;;16.60;99.90;;;;;;5001885;28;20069;-77
2022/07/14 05:43:48;;;;;;;7.30;2.45;;;16.60;99.90;;;;;;4997308;28;20023;-76
2022/07/14 05:46:14;;;;;;;14.48;3.13;;;16.60;99.90;;;;;;4998042;28;20030;-77
2022/07/14 05:48:41;;;;;;;11.32;2.92;;;16.70;99.90;;;;;;5001528;28;20038;-77
2022/07/14 05:51:12;;;;;;;11.88;2.97;;;16.70;99.90;;;;;;5003048;28;20044;-77
2022/07/14 05:53:39;;;;;;;11.82;2.30;;;16.70;99.90;;;;;;5000481;28;20035;-76
2022/07/14 05:56:05;;;;;;;9.93;2.55;;;16.70;99.90;;;;;;4995936;28;20035;-76
2022/07/14 05:58:32;;;;;;;10.52;2.30;;;16.80;99.90;;;;;;5000081;28;20018;-75
2022/07/14 06:00:58;;;;;;;8.30;2.28;;;16.80;99.90;;;;;;4997258;28;20077;-76
2022/07/14 06:03:24;;;;;;;9.07;2.08;;;16.90;99.90;;;;;;5002611;28;20486;-76
2022/07/14 06:05:50;;;;;;;9.25;2.45;;;16.90;99.90;;;;;;4999422;28;20445;-77
2022/07/14 06:08:16;;;;;;;7.13;1.95;;;16.90;99.90;;;;;;4998957;28;20030;-75
2022/07/14 06:10:42;;;;;;;5.28;1.50;;;16.90;99.90;;;;;;4996601;28;20033;-76
2022/07/14 06:13:08;;;;;;;8.25;2.17;;;16.90;99.90;;;;;;5002932;28;20015;-76
2022/07/14 06:15:33;;;;;;;7.63;1.52;;;17.00;99.90;;;;;;4998825;28;20061;-78
2022/07/14 06:17:59;;;;;;;7.32;1.73;;;17.10;99.90;;;;;;4999237;28;20025;-76
2022/07/14 06:20:25;;;;;;;6.60;1.83;;;17.10;99.90;;;;;;4997605;28;20030;-77
2022/07/14 06:22:51;;;;;;;3.92;1.10;;;17.10;99.90;;;;;;5000810;28;20097;-76
2022/07/14 06:25:17;;;;;;;7.72;1.48;;;17.10;99.90;;;;;;5000237;28;20030;-76
2022/07/14 06:27:42;;;;;;;13.20;3.20;;;17.20;99.90;;;;;;4999529;28;20030;-76
2022/07/14 06:30:09;;;;;;;9.45;1.67;;;17.40;99.90;;;;;;4998824;28;20029;-76
2022/07/14 06:32:40;;;;;;;9.70;1.70;;;17.50;99.90;;;;;;5002955;28;20092;-76
2022/07/14 06:35:09;;;;;;;10.43;1.88;;;17.60;99.90;;;;;;5000242;28;20149;-79
2022/07/14 06:37:35;;;;;;;12.68;1.83;;;17.70;99.90;;;;;;4980651;28;20054;-77
2022/07/14 06:40:04;;;;;;;9.68;1.80;;;17.70;99.90;;;;;;5000135;28;20030;-77
2022/07/14 06:42:30;;;;;;;8.73;1.65;;;17.70;99.90;;;;;;4998672;28;20124;-76
2022/07/14 06:44:56;;;;;;;8.13;1.80;;;17.60;99.90;;;;;;4999469;28;20200;-76
2022/07/14 06:47:22;;;;;;;5.00;1.15;;;17.50;99.90;;;;;;4999974;28;20026;-76
2022/07/14 06:49:48;;;;;;;14.20;3.00;;;17.50;99.90;;;;;;5001506;28;20033;-77
2022/07/14 06:52:13;;;;;;;9.27;1.40;;;17.60;99.90;;;;;;4999604;28;20061;-78
2022/07/14 06:54:39;;;;;;;8.15;1.25;;;17.70;99.90;;;;;;4999866;28;20026;-75
2022/07/14 06:57:05;;;;;;;11.38;2.03;;;17.70;99.90;;;;;;4998712;28;20041;-77
2022/07/14 06:59:31;;;;;;;4.68;1.30;;;17.80;99.90;;;;;;5000474;28;20038;-77
2022/07/14 07:01:57;;;;;;;3.90;1.30;;;17.70;99.90;;;;;;4999244;28;20033;-77
2022/07/14 07:04:23;;;;;;;10.50;1.70;;;17.60;99.90;;;;;;5000332;28;20026;-77
2022/07/14 07:06:50;;;;;;;6.45;1.42;;;17.70;99.90;;;;;;5005584;28;20018;-76
2022/07/14 07:09:19;;;;;;;3.75;1.02;;;17.50;99.90;;;;;;5001905;28;20438;-77
2022/07/14 07:11:49;;;;;;;6.55;1.20;;;17.80;99.90;;;;;;5003798;28;20390;-76
2022/07/14 07:14:16;;;;;;;10.82;1.38;;;18.00;99.90;;;;;;5003772;28;20026;-77
2022/07/14 07:16:44;;;;;;;4.70;0.88;;;18.00;99.90;;;;;;4987438;28;20019;-77
2022/07/14 07:19:10;;;;;;;5.10;0.80;;;18.00;99.90;;;;;;4987255;28;20026;-77
2022/07/14 07:21:36;;;;;;;4.72;1.52;;;18.00;99.90;;;;;;5002723;28;20410;-77
2022/07/14 07:24:02;;;;;;;3.05;0.60;;;17.90;99.90;;;;;;5002649;28;20393;-77
2022/07/14 07:26:36;;;;;;;5.72;0.73;;;17.80;99.90;;;;;;5003800;28;20030;-77
2022/07/14 07:29:03;;;;;;;3.90;1.10;;;17.90;99.90;;;;;;5003345;28;20394;-76
2022/07/14 07:31:31;;;;;;;2.10;0.80;;;18.00;99.90;;;;;;5009721;28;20030;-76
2022/07/14 07:33:57;;;;;;;4.28;1.20;;;18.10;99.90;;;;;;5004567;28;20021;-77
2022/07/14 07:36:23;;;;;;;4.15;0.98;;;18.20;99.90;;;;;;4985546;28;20022;-77
2022/07/14 07:38:49;;;;;;;6.25;1.80;;;18.30;99.90;;;;;;4987337;28;20041;-76
2022/07/14 07:41:15;;;;;;;6.55;1.00;;;18.20;99.90;;;;;;5002910;28;20481;-75
2022/07/14 07:43:40;;;;;;;5.93;1.27;;;18.10;99.90;;;;;;4988304;28;20053;-76
2022/07/14 07:46:07;;;;;;;3.83;0.80;;;18.00;99.90;;;;;;5001931;28;20030;-76
2022/07/14 07:48:33;;;;;;;4.93;0.98;;;17.90;99.90;;;;;;4986742;28;20038;-77
2022/07/14 07:50:59;;;;;;;7.63;1.00;;;17.80;99.90;;;;;;5003369;28;20113;-77
2022/07/14 07:53:25;;;;;;;4.03;1.27;;;17.90;99.90;;;;;;5003239;28;20022;-78
2022/07/14 07:55:54;;;;;;;7.30;1.13;;;18.20;99.90;;;;;;4999750;28;20026;-77
2022/07/14 07:58:20;;;;;;;6.68;1.25;;;18.40;99.90;;;;;;5005678;28;20019;-76
2022/07/14 08:00:47;;;;;;;4.90;1.23;;;18.60;99.90;;;;;;5001329;28;20022;-76
2022/07/14 08:03:13;;;;;;;4.28;1.30;;;18.50;99.90;;;;;;5002759;28;20019;-76
2022/07/14 08:05:40;;;;;;;5.97;1.00;;;18.30;99.40;;;;;;5001761;28;20030;-75
2022/07/14 08:08:07;;;;;;;4.22;0.70;;;18.10;99.80;;;;;;5004593;28;20374;-76
2022/07/14 08:10:34;;;;;;;3.13;0.82;;;17.90;99.80;;;;;;5002617;28;20117;-76
2022/07/14 08:13:00;;;;;;;7.50;1.38;;;17.90;99.90;;;;;;5003539;28;20385;-76
2022/07/14 08:15:26;;;;;;;6.20;0.80;;;17.90;99.90;;;;;;5001895;28;20026;-77
2022/07/14 08:17:52;;;;;;;4.28;1.00;;;18.10;99.90;;;;;;4998623;28;20486;-78
2022/07/14 08:20:19;;;;;;;4.47;1.10;;;18.40;99.90;;;;;;5005286;28;20037;-77
2022/07/14 08:22:45;;;;;;;3.80;0.70;;;18.50;99.80;;;;;;5001069;28;20076;-76
2022/07/14 08:25:11;;;;;;;6.78;1.40;;;18.50;98.20;;;;;;5000861;28;20490;-77
2022/07/14 08:27:37;;;;;;;4.38;0.80;;;18.40;98.10;;;;;;5000102;28;20074;-76
2022/07/14 08:30:04;;;;;;;3.17;0.80;;;18.30;98.20;;;;;;5002077;28;20112;-78
2022/07/14 08:32:50;;;;;;;4.88;1.00;;;18.30;98.40;;;;;;5003929;28;20030;-78
2022/07/14 08:35:17;;;;;;;2.92;0.77;;;18.40;98.20;;;;;;5003490;28;20032;-77
2022/07/14 08:37:44;;;;;;;3.67;0.70;;;18.60;98.40;;;;;;5002626;28;20026;-77
2022/07/14 08:40:12;;;;;;;2.55;0.90;;;18.90;97.90;;;;;;5001818;28;20109;-77
2022/07/14 08:42:41;;;;;;;3.55;0.80;;;19.10;96.90;;;;;;5003834;28;20498;-78
2022/07/14 08:45:10;;;;;;;2.55;0.60;;;19.00;96.40;;;;;;5004709;28;20079;-78
2022/07/14 08:47:37;;;;;;;5.00;1.05;;;18.90;96.60;;;;;;4987067;28;20212;-77
2022/07/14 08:50:04;;;;;;;5.43;0.90;;;18.80;96.40;;;;;;5016016;28;20104;-78
2022/07/14 08:52:31;;;;;;;1.40;0.52;;;18.70;96.70;;;;;;4999985;28;20026;-77
2022/07/14 08:54:57;;;;;;;4.70;0.90;;;18.80;97.00;;;;;;5002224;28;20474;-77
2022/07/14 08:57:23;;;;;;;4.47;1.23;;;18.90;96.60;;;;;;5002470;28;20030;-77
2022/07/14 08:59:49;;;;;;;8.10;1.33;;;19.20;96.60;;;;;;4998293;28;20371;-77
2022/07/14 09:02:15;;;;;;;6.80;2.83;;;19.40;95.80;;;;;;5002371;28;20033;-77
2022/07/14 09:04:45;;;;;;;5.93;1.00;;;19.60;95.10;;;;;;5000585;28;20457;-77
2022/07/14 09:07:12;;;;;;;3.97;0.90;;;19.40;94.40;;;;;;5003908;28;20026;-76
2022/07/14 09:09:39;;;;;;;4.75;0.60;;;19.40;94.50;;;;;;4999500;28;20410;-77
2022/07/14 09:12:07;;;;;;;4.15;0.65;;;19.30;93.90;;;;;;5001185;28;20488;-77
2022/07/14 09:17:26;;;;;;;3.42;0.80;;;19.30;92.60;;;;;;5004087;28;20022;-77
2022/07/14 09:20:09;;;;;;;4.55;0.98;;;19.40;93.00;;;;;;5001872;28;20026;-77
2022/07/14 09:22:36;;;;;;;7.03;1.00;;;19.70;92.80;;;;;;5008165;28;20090;-79
2022/07/14 09:25:24;;;;;;;5.30;1.25;;;19.70;92.50;;;;;;5002711;28;20101;-78
2022/07/14 09:27:50;;;;;;;2.08;0.85;;;19.60;92.60;;;;;;5000579;28;20042;-79
2022/07/14 09:30:16;;;;;;;2.75;0.60;;;19.50;92.60;;;;;;5000230;28;20042;-78
2022/07/14 09:32:48;;;;;;;2.75;0.75;;;19.50;92.60;;;;;;5001327;28;20035;-76
2022/07/14 09:35:26;;;;;;;3.38;0.88;;;19.30;92.30;;;;;;5000372;28;20512;-76
2022/07/14 09:37:54;;;;;;;3.58;0.60;;;19.40;91.90;;;;;;5000994;28;20053;-78
2022/07/14 09:40:22;;;;;;;2.85;0.50;;;19.50;90.90;;;;;;4997989;28;20030;-78
2022/07/14 09:42:58;;;;;;;2.45;0.65;;;19.50;91.20;;;;;;5002067;28;20030;-79
2022/07/14 09:45:39;;;;;;;5.55;0.70;;;19.70;89.90;;;;;;5002818;28;20047;-77
2022/07/14 09:48:11;;;;;;;5.22;0.85;;;19.70;90.70;;;;;;5005202;28;20100;-76
2022/07/14 09:50:48;;;;;;;2.90;0.70;;;19.80;91.40;;;;;;4984320;28;20031;-78
2022/07/14 09:53:20;;;;;;;6.65;1.25;;;19.90;90.80;;;;;;5000968;28;20030;-77
2022/07/14 09:55:59;;;;;;;4.80;1.00;;;20.00;90.60;;;;;;5001088;28;20711;-78
2022/07/14 09:58:27;;;;;;;2.83;0.70;;;20.10;90.20;;;;;;4999754;28;20029;-78
2022/07/14 10:01:05;;;;;;;4.22;0.75;;;20.20;87.90;;;;;;5004413;28;20026;-78
2022/07/14 10:03:36;;;;;;;1.88;0.68;;;20.20;87.30;;;;;;5000522;28;20037;-77
2022/07/14 10:06:04;;;;;;;4.78;0.70;;;20.20;87.80;;;;;;4998747;28;20026;-78
2022/07/14 10:08:33;;;;;;;4.55;1.08;;;20.10;88.40;;;;;;4997014;28;20034;-77
2022/07/14 10:11:05;;;;;;;18.50;8.93;;;20.20;89.90;;;;;;5003096;28;20053;-76
2022/07/14 10:13:31;;;;;;;2.83;0.70;;;20.00;87.60;;;;;;5003013;28;20029;-76
2022/07/14 10:15:58;;;;;;;3.05;0.50;;;19.80;87.70;;;;;;5001124;28;20030;-77
2022/07/14 10:18:26;;;;;;;4.28;0.60;;;19.70;87.80;;;;;;5003780;28;20379;-79
2022/07/14 10:20:58;;;;;;;3.35;0.60;;;19.70;88.80;;;;;;5003342;28;20030;-78
2022/07/14 10:23:25;;;;;;;3.50;0.80;;;19.80;90.00;;;;;;5015343;28;20034;-77
2022/07/14 10:25:54;;;;;;;6.78;0.98;;;20.00;90.00;;;;;;5008979;28;20030;-77
2022/07/14 10:28:21;;;;;;;5.95;1.58;;;20.10;90.00;;;;;;5003316;28;20049;-77
2022/07/14 10:31:14;;;;;;;3.97;1.75;;;20.10;92.70;;;;;;5002142;28;20068;-78
2022/07/14 10:33:57;;;;;;;3.88;0.88;;;20.50;91.50;;;;;;4998869;28;20498;-77
2022/07/14 10:36:23;;;;;;;3.10;0.90;;;20.20;91.70;;;;;;4999226;28;20490;-78
2022/07/14 10:38:58;;;;;;;3.95;0.90;;;20.20;92.00;;;;;;4999483;28;20074;-77
2022/07/14 10:41:39;;;;;;;6.10;0.90;;;20.20;92.40;;;;;;4965847;28;20065;-78
2022/07/14 10:44:20;;;;;;;4.43;0.90;;;20.20;92.90;;;;;;4999540;28;21303;-77
2022/07/14 10:46:49;;;;;;;4.35;1.00;;;20.40;92.20;;;;;;4985081;28;20068;-78
2022/07/14 10:49:16;;;;;;;3.88;1.17;;;20.50;92.20;;;;;;4998019;28;20076;-78
2022/07/14 10:51:44;;;;;;;5.68;1.20;;;20.50;91.90;;;;;;5000659;28;20045;-78
2022/07/14 10:54:11;;;;;;;5.78;0.90;;;20.70;92.50;;;;;;4999871;28;20014;-78
2022/07/14 10:56:39;;;;;;;4.40;0.77;;;20.70;91.60;;;;;;4995844;28;20096;-79
2022/07/14 10:59:27;;;;;;;3.33;0.80;;;20.80;91.70;;;;;;4999941;28;20022;-77
2022/07/14 11:02:13;;;;;;;3.80;1.00;;;20.90;91.50;;;;;;4982639;28;20026;-78
2022/07/14 11:08:06;;;;;;;100.18;47.58;;;20.70;91.10;;;;;;4998161;28;20023;-78
2022/07/14 11:10:32;;;;;;;17.77;8.07;;;21.00;94.00;;;;;;4997188;28;20041;-78
2022/07/14 11:13:04;;;;;;;20.65;9.07;;;21.30;91.40;;;;;;4997506;28;20026;-76
2022/07/14 11:15:39;;;;;;;6.55;1.80;;;21.20;91.30;;;;;;4995136;28;20517;-76
2022/07/14 11:18:42;;;;;;;5.38;1.20;;;21.10;91.30;;;;;;4997737;28;20026;-77
2022/07/14 11:21:18;;;;;;;3.85;0.90;;;20.90;91.50;;;;;;4996904;28;20034;-78
2022/07/14 11:23:49;;;;;;;7.13;2.40;;;20.70;91.30;;;;;;4994596;28;20552;-78
2022/07/14 11:26:40;;;;;;;5.72;1.25;;;20.60;90.70;;;;;;4978028;28;20425;-77
2022/07/14 11:29:11;;;;;;;4.10;0.80;;;20.80;90.00;;;;;;4997687;28;20193;-77
2022/07/14 11:31:50;;;;;;;;;;;20.70;90.20;;;;;;4998097;28;20425;-77
2022/07/14 11:37:12;;;;;;;4.40;1.20;;;20.60;90.20;;;;;;4996106;28;20030;-77
2022/07/14 11:39:40;;;;;;;3.70;1.20;;;20.70;90.80;;;;;;4997150;28;20167;-77
2022/07/14 11:42:08;;;;;;;7.32;1.58;;;20.80;90.60;;;;;;5002867;28;20049;-77
2022/07/14 11:44:38;;;;;;;3.50;0.80;;;21.10;90.10;;;;;;4985655;28;20029;-78
2022/07/14 11:47:24;;;;;;;9.10;3.72;;;21.40;85.80;;;;;;4980022;28;20073;-77
2022/07/14 11:49:55;;;;;;;443.58;319.60;;;21.40;86.90;;;;;;4996516;28;20596;-76
2022/07/14 11:52:32;;;;;;;604.97;471.83;;;21.20;85.80;;;;;;4983950;28;20034;-79
2022/07/14 11:55:03;;;;;;;74.10;50.83;;;21.10;87.90;;;;;;4998431;28;20045;-76
2022/07/14 11:57:29;;;;;;;;;;;20.90;88.60;;;;;;5001905;28;20018;-77
2022/07/14 12:00:06;;;;;;;4.22;1.10;;;20.80;88.90;;;;;;5016719;28;20432;-76
2022/07/14 12:02:32;;;;;;;1.42;0.55;;;20.80;88.70;;;;;;4999582;28;20066;-77
2022/07/14 12:05:00;;;;;;;2.83;0.70;;;20.70;88.40;;;;;;5000543;28;20056;-77
2022/07/14 12:07:27;;;;;;;2.15;0.55;;;21.00;88.50;;;;;;4986243;28;20037;-79
2022/07/14 12:09:53;;;;;;;5.25;0.85;;;21.20;87.90;;;;;;5001663;28;20041;-77
2022/07/14 12:12:23;;;;;;;2.50;0.68;;;21.50;86.70;;;;;;5002573;28;20374;-77
2022/07/14 12:14:52;;;;;;;3.00;0.70;;;21.40;86.10;;;;;;5000443;28;20625;-77
2022/07/14 12:17:21;;;;;;;3.65;0.80;;;21.30;84.70;;;;;;5003433;28;20497;-77
2022/07/14 12:19:47;;;;;;;3.00;0.82;;;21.10;86.20;;;;;;5001134;28;20033;-77
2022/07/14 12:22:15;;;;;;;2.30;0.70;;;21.10;86.90;;;;;;5000958;28;20026;-79
2022/07/14 12:24:41;;;;;;;3.15;0.70;;;20.90;87.50;;;;;;4998291;28;20031;-76
2022/07/14 12:27:09;;;;;;;4.00;0.90;;;20.70;86.60;;;;;;5001455;28;20125;-76
2022/07/14 12:29:44;;;;;;;3.35;0.73;;;20.60;85.80;;;;;;5016715;28;20053;-77
2022/07/14 12:32:10;;;;;;;4.35;0.98;;;20.60;85.10;;;;;;5001754;28;20030;-77
2022/07/14 12:34:37;;;;;;;2.40;0.55;;;20.60;84.70;;;;;;5001302;28;20065;-77
2022/07/14 12:37:04;;;;;;;3.45;0.75;;;20.50;84.30;;;;;;4999237;28;20018;-78
2022/07/14 12:39:32;;;;;;;3.00;0.82;;;20.50;85.30;;;;;;5000973;28;20031;-77
2022/07/14 12:42:03;;;;;;;1.55;0.50;;;20.50;86.20;;;;;;5003444;28;20026;-77
2022/07/14 12:44:31;;;;;;;3.15;0.70;;;20.40;86.40;;;;;;5000697;28;20038;-77
2022/07/14 12:47:08;;;;;;;2.53;0.95;;;20.50;85.60;;;;;;4999350;28;20023;-78
2022/07/14 12:49:48;;;;;;;4.47;1.10;;;20.70;84.90;;;;;;5001298;28;20034;-78
2022/07/14 12:52:15;;;;;;;5.50;0.90;;;20.80;84.90;;;;;;5001805;28;20170;-79
2022/07/14 12:54:43;;;;;;;3.42;0.60;;;20.90;84.70;;;;;;4999468;28;20380;-77
2022/07/14 12:57:20;;;;;;;2.58;0.95;;;21.10;82.70;;;;;;5000604;28;20656;-77
2022/07/14 12:59:46;;;;;;;4.63;0.90;;;21.20;82.50;;;;;;4999581;28;20030;-79
2022/07/14 13:02:21;;;;;;;1.70;0.75;;;21.30;81.90;;;;;;4983766;28;20026;-79
2022/07/14 13:04:50;;;;;;;3.78;1.00;;;21.40;82.10;;;;;;4998810;28;20097;-76